createdAt,value
2023-02-15T00:00:24.251Z,7.20
2023-02-15T00:03:11.503Z,9.20
2023-02-15T00:05:39.901Z,6.30
2023-02-15T00:08:08.220Z,7.70
2023-02-15T00:10:36.367Z,8.80
2023-02-15T00:13:05.683Z,7.70
2023-02-15T00:15:33.889Z,9.00
2023-02-15T00:18:01.950Z,9.00
2023-02-15T00:20:30.262Z,8.60
2023-02-15T00:22:58.699Z,8.00
2023-02-15T00:25:26.960Z,8.60
2023-02-15T00:27:55.110Z,10.80
2023-02-15T00:30:23.393Z,7.70
2023-02-15T00:32:51.584Z,8.00
2023-02-15T00:35:19.776Z,9.40
2023-02-15T00:37:48.900Z,8.20
2023-02-15T00:40:17.173Z,8.70
2023-02-15T00:42:45.366Z,6.80
2023-02-15T00:45:13.719Z,7.60
2023-02-15T00:47:41.909Z,10.10
2023-02-15T00:50:10.496Z,8.20
2023-02-15T00:52:40.050Z,9.60
2023-02-15T00:55:08.368Z,9.60
2023-02-15T00:57:36.589Z,8.90
2023-02-15T01:00:05.330Z,9.30
2023-02-15T01:02:33.776Z,7.50
2023-02-15T01:05:04.120Z,10.70
2023-02-15T01:07:32.349Z,7.80
2023-02-15T01:10:01.057Z,10.40
2023-02-15T01:12:29.352Z,9.60
2023-02-15T01:14:58.436Z,9.70
2023-02-15T01:17:27.512Z,6.90
2023-02-15T01:19:55.773Z,9.20
2023-02-15T01:22:24.110Z,10.40
2023-02-15T01:24:53.559Z,9.60
2023-02-15T01:27:25.574Z,9.40
2023-02-15T01:29:53.851Z,9.90
2023-02-15T01:32:24.535Z,9.60
2023-02-15T01:34:52.837Z,10.10
2023-02-15T01:37:21.470Z,9.00
2023-02-15T01:39:49.906Z,9.50
2023-02-15T01:42:25.184Z,6.30
2023-02-15T01:44:57.474Z,10.70
2023-02-15T01:47:58.774Z,9.40
2023-02-15T01:50:34.732Z,9.40
2023-02-15T01:53:39.627Z,9.80
2023-02-15T01:56:31.960Z,9.90
2023-02-15T01:59:05.040Z,9.70
2023-02-15T02:01:33.656Z,10.20
2023-02-15T02:04:10.391Z,10.30
2023-02-15T02:06:40.365Z,8.80
2023-02-15T02:09:09.001Z,9.40
2023-02-15T02:11:37.455Z,9.10
2023-02-15T02:14:05.669Z,10.00
2023-02-15T02:16:55.849Z,9.60
2023-02-15T02:19:58.510Z,10.00
2023-02-15T02:23:04.519Z,8.10
2023-02-15T02:26:07.686Z,8.50
2023-02-15T02:28:50.934Z,9.90
2023-02-15T02:31:31.302Z,9.20
2023-02-15T02:34:05.708Z,9.40
2023-02-15T02:36:56.855Z,9.80
2023-02-15T02:39:43.951Z,9.60
2023-02-15T02:42:45.778Z,8.50
2023-02-15T02:45:25.384Z,9.90
2023-02-15T02:48:13.610Z,10.40
2023-02-15T02:50:43.041Z,7.30
2023-02-15T02:53:12.726Z,9.80
2023-02-15T02:55:57.230Z,9.90
2023-02-15T02:58:38.118Z,8.70
2023-02-15T03:01:51.185Z,6.80
2023-02-15T03:04:26.116Z,10.50
2023-02-15T03:07:09.136Z,9.60
2023-02-15T03:09:43.151Z,9.90
2023-02-15T03:12:22.225Z,9.80
2023-02-15T03:14:56.678Z,6.70
2023-02-15T03:17:28.915Z,10.00
2023-02-15T03:20:03.232Z,9.70
2023-02-15T03:22:43.870Z,7.40
2023-02-15T03:25:26.524Z,10.80
2023-02-15T03:28:01.012Z,10.10
2023-02-15T03:30:32.203Z,9.50
2023-02-15T03:33:04.108Z,9.60
2023-02-15T03:35:43.187Z,9.70
2023-02-15T03:38:15.082Z,10.20
2023-02-15T03:41:07.286Z,8.90
2023-02-15T03:43:42.210Z,9.40
2023-02-15T03:46:41.265Z,8.10
2023-02-15T03:49:20.189Z,9.80
2023-02-15T03:51:51.447Z,5.90
2023-02-15T03:54:45.004Z,5.70
2023-02-15T03:57:38.367Z,10.30
2023-02-15T04:00:47.408Z,10.20
2023-02-15T04:03:30.108Z,9.70
2023-02-15T04:05:59.913Z,8.30
2023-02-15T04:08:48.354Z,8.80
2023-02-15T04:11:17.395Z,9.90
2023-02-15T04:13:45.768Z,10.00
2023-02-15T04:16:14.130Z,9.10
2023-02-15T04:19:03.036Z,8.10
2023-02-15T04:21:51.071Z,9.00
2023-02-15T04:24:38.452Z,5.60
2023-02-15T04:27:07.024Z,8.40
2023-02-15T04:29:35.248Z,10.40
2023-02-15T04:32:03.736Z,7.10
2023-02-15T04:34:32.160Z,8.90
2023-02-15T04:37:00.629Z,8.50
2023-02-15T04:39:28.879Z,7.20
2023-02-15T04:41:57.031Z,9.30
2023-02-15T04:44:25.260Z,6.30
2023-02-15T04:46:53.931Z,10.80
2023-02-15T04:49:22.645Z,8.20
2023-02-15T04:51:50.890Z,8.90
2023-02-15T04:54:19.152Z,9.80
2023-02-15T04:56:49.592Z,8.80
2023-02-15T04:59:17.778Z,10.80
2023-02-15T05:01:46.136Z,9.90
2023-02-15T05:04:14.503Z,8.90
2023-02-15T05:06:42.773Z,8.90
2023-02-15T05:09:13.151Z,8.80
2023-02-15T05:11:41.550Z,9.30
2023-02-15T05:14:10.092Z,10.00
2023-02-15T05:16:40.803Z,8.70
2023-02-15T05:21:56.820Z,7.00
2023-02-15T05:24:45.011Z,8.50
2023-02-15T05:27:33.081Z,8.60
2023-02-15T05:30:03.274Z,8.10
2023-02-15T05:32:34.167Z,9.60
2023-02-15T05:35:03.912Z,9.70
2023-02-15T05:37:32.195Z,9.80
2023-02-15T05:40:00.549Z,8.20
2023-02-15T05:42:28.732Z,8.70
2023-02-15T05:44:57.057Z,9.90
2023-02-15T05:47:25.225Z,8.50
2023-02-15T05:49:53.596Z,8.10
2023-02-15T05:52:21.857Z,9.80
2023-02-15T05:54:50.612Z,5.60
2023-02-15T05:57:18.959Z,8.90
2023-02-15T05:59:47.722Z,7.30
2023-02-15T06:02:16.068Z,8.50
2023-02-15T06:04:44.304Z,9.90
2023-02-15T06:07:13.333Z,8.90
2023-02-15T06:09:42.068Z,7.10
2023-02-15T06:12:10.354Z,8.50
2023-02-15T06:14:38.507Z,9.40
2023-02-15T06:17:07.503Z,8.00
2023-02-15T06:19:35.780Z,8.70
2023-02-15T06:22:04.013Z,9.10
2023-02-15T06:24:32.212Z,9.10
2023-02-15T06:27:00.324Z,8.00
2023-02-15T06:29:29.011Z,7.70
2023-02-15T06:31:58.865Z,8.10
2023-02-15T06:34:28.805Z,6.00
2023-02-15T06:36:57.051Z,7.60
2023-02-15T06:39:25.372Z,7.60
2023-02-15T06:41:53.700Z,5.90
2023-02-15T06:44:21.928Z,8.00
2023-02-15T06:46:50.266Z,8.60
2023-02-15T06:49:18.395Z,8.30
2023-02-15T06:51:46.715Z,7.30
2023-02-15T06:54:16.715Z,8.90
2023-02-15T06:56:45.000Z,9.30
2023-02-15T06:59:13.301Z,7.90
2023-02-15T07:01:41.804Z,7.60
2023-02-15T07:04:11.853Z,7.90
2023-02-15T07:06:42.172Z,8.10
2023-02-15T07:09:12.237Z,7.20
2023-02-15T07:11:59.391Z,8.10
2023-02-15T07:14:28.996Z,8.90
2023-02-15T07:16:57.422Z,7.50
2023-02-15T07:19:26.218Z,6.60
2023-02-15T07:21:56.509Z,7.40
2023-02-15T07:24:24.864Z,7.30
2023-02-15T07:26:53.824Z,7.90
2023-02-15T07:29:22.398Z,6.00
2023-02-15T07:31:51.035Z,7.70
2023-02-15T07:34:19.920Z,6.50
2023-02-15T07:36:52.400Z,7.10
2023-02-15T07:39:22.051Z,6.60
2023-02-15T07:41:55.276Z,7.60
2023-02-15T07:44:23.726Z,6.70
2023-02-15T07:46:54.422Z,6.10
2023-02-15T07:49:22.929Z,6.90
2023-02-15T07:51:51.484Z,7.60
2023-02-15T07:54:19.828Z,7.30
2023-02-15T07:56:48.180Z,7.30
2023-02-15T07:59:16.591Z,6.20
2023-02-15T08:01:44.796Z,6.00
2023-02-15T08:04:13.185Z,7.30
2023-02-15T08:06:41.542Z,6.60
2023-02-15T08:09:10.309Z,5.80
2023-02-15T08:11:40.931Z,6.90
2023-02-15T08:14:23.268Z,6.20
2023-02-15T08:16:57.302Z,6.20
2023-02-15T08:19:26.718Z,6.60
2023-02-15T08:22:00.875Z,6.80
2023-02-15T08:24:31.627Z,5.10
2023-02-15T08:27:00.587Z,5.90
2023-02-15T08:29:30.122Z,6.00
2023-02-15T08:32:03.441Z,5.80
2023-02-15T08:34:34.652Z,6.00
2023-02-15T08:37:03.421Z,6.20
2023-02-15T08:39:31.641Z,7.00
2023-02-15T08:41:59.931Z,6.30
2023-02-15T08:44:28.210Z,6.40
2023-02-15T08:46:58.587Z,4.70
2023-02-15T08:49:26.808Z,5.20
2023-02-15T08:51:54.945Z,6.70
2023-02-15T08:54:23.254Z,7.30
2023-02-15T08:56:51.591Z,6.70
2023-02-15T08:59:24.247Z,6.30
2023-02-15T09:01:59.363Z,6.10
2023-02-15T09:04:37.723Z,4.80
2023-02-15T09:07:06.408Z,6.00
2023-02-15T09:09:35.377Z,5.70
2023-02-15T09:12:03.913Z,4.30
2023-02-15T09:14:32.134Z,6.10
2023-02-15T09:17:00.430Z,7.50
2023-02-15T09:19:28.624Z,6.50
2023-02-15T09:21:57.996Z,6.00
2023-02-15T09:24:26.247Z,5.80
2023-02-15T09:26:54.495Z,5.10
2023-02-15T09:29:23.912Z,4.50
2023-02-15T09:31:52.674Z,5.40
2023-02-15T09:34:23.251Z,5.80
2023-02-15T09:36:52.223Z,5.50
2023-02-15T09:39:25.902Z,6.80
2023-02-15T09:41:57.117Z,6.10
2023-02-15T09:44:28.378Z,5.40
2023-02-15T09:47:32.467Z,7.90
2023-02-15T09:50:36.338Z,5.40
2023-02-15T09:53:29.970Z,5.10
2023-02-15T09:56:21.285Z,5.10
2023-02-15T09:59:14.653Z,5.30
2023-02-15T10:02:04.213Z,5.30
2023-02-15T10:05:06.964Z,6.20
2023-02-15T10:07:56.445Z,7.20
2023-02-15T10:11:28.392Z,7.10
2023-02-15T10:14:25.426Z,4.30
2023-02-15T10:16:57.358Z,6.90
2023-02-15T10:19:41.480Z,6.50
2023-02-15T10:22:42.851Z,7.10
2023-02-15T10:25:32.547Z,5.20
2023-02-15T10:28:07.490Z,6.80
2023-02-15T10:30:38.891Z,7.40
2023-02-15T10:33:40.327Z,6.30
2023-02-15T10:36:18.751Z,6.20
2023-02-15T10:39:00.022Z,7.20
2023-02-15T10:41:35.516Z,7.70
2023-02-15T10:44:37.898Z,7.40
2023-02-15T10:47:29.167Z,6.50
2023-02-15T10:50:20.851Z,6.50
2023-02-15T10:52:56.927Z,8.10
2023-02-15T10:55:44.316Z,7.40
2023-02-15T10:58:36.208Z,7.60
2023-02-15T11:01:09.617Z,5.70
2023-02-15T11:03:57.941Z,4.50
2023-02-15T11:06:28.469Z,6.20
2023-02-15T11:09:10.812Z,6.90
2023-02-15T11:11:43.667Z,7.10
2023-02-15T11:14:32.314Z,5.60
2023-02-15T11:17:08.363Z,6.80
2023-02-15T11:20:06.944Z,6.30
2023-02-15T11:22:36.086Z,6.20
2023-02-15T11:25:20.921Z,8.00
2023-02-15T11:27:50.965Z,7.50
2023-02-15T11:30:22.992Z,7.80
2023-02-15T11:32:55.941Z,8.20
2023-02-15T11:35:35.224Z,9.00
2023-02-15T11:38:24.761Z,7.00
2023-02-15T11:40:59.943Z,7.10
2023-02-15T11:43:44.647Z,6.90
2023-02-15T11:46:14.451Z,6.60
2023-02-15T11:48:43.793Z,7.00
2023-02-15T11:51:24.378Z,7.80
2023-02-15T11:53:53.130Z,7.70
2023-02-15T11:56:25.026Z,9.20
2023-02-15T11:59:12.195Z,6.90
2023-02-15T12:01:48.216Z,7.00
2023-02-15T12:04:39.894Z,6.40
2023-02-15T12:07:23.793Z,5.40
2023-02-15T12:09:58.557Z,6.90
2023-02-15T12:12:34.344Z,6.00
2023-02-15T12:15:11.918Z,6.40
2023-02-15T12:17:49.348Z,6.20
2023-02-15T12:20:17.998Z,6.40
2023-02-15T12:22:54.374Z,7.90
2023-02-15T12:25:26.630Z,5.30
2023-02-15T12:27:56.038Z,7.30
2023-02-15T12:30:35.976Z,7.60
2023-02-15T12:33:25.626Z,7.10
2023-02-15T12:36:12.446Z,7.60
2023-02-15T12:38:41.209Z,6.00
2023-02-15T12:41:27.528Z,6.40
2023-02-15T12:44:16.888Z,6.70
2023-02-15T12:46:58.848Z,5.00
2023-02-15T12:49:32.826Z,7.30
2023-02-15T12:52:04.755Z,6.80
2023-02-15T12:54:39.651Z,6.00
2023-02-15T12:57:22.404Z,7.40
2023-02-15T12:59:52.622Z,6.80
2023-02-15T13:02:47.251Z,6.80
2023-02-15T13:05:27.251Z,7.20
2023-02-15T13:07:59.513Z,6.60
2023-02-15T13:10:28.664Z,6.80
2023-02-15T13:12:59.023Z,6.60
2023-02-15T13:15:48.301Z,7.60
2023-02-15T13:18:30.507Z,7.60
2023-02-15T13:21:16.865Z,8.60
2023-02-15T13:24:07.474Z,7.60
2023-02-15T13:26:37.284Z,7.50
2023-02-15T13:29:24.363Z,7.60
2023-02-15T13:31:56.470Z,7.50
2023-02-15T13:34:29.553Z,4.90
2023-02-15T13:37:10.264Z,7.80
2023-02-15T13:40:08.338Z,7.80
2023-02-15T13:42:43.212Z,7.90
2023-02-15T13:45:32.774Z,8.60
2023-02-15T13:48:06.124Z,8.80
2023-02-15T13:50:58.456Z,8.20
2023-02-15T13:53:41.773Z,8.20
2023-02-15T13:56:33.665Z,6.60
2023-02-15T13:59:20.245Z,8.60
2023-02-15T14:04:40.540Z,8.60
2023-02-15T14:07:37.056Z,8.20
2023-02-15T14:10:49.948Z,7.30
2023-02-15T14:13:42.450Z,8.40
2023-02-15T14:17:06.106Z,8.00
2023-02-15T14:19:51.024Z,8.00
2023-02-15T14:22:38.162Z,8.60
2023-02-15T14:25:31.264Z,8.00
2023-02-15T14:28:02.614Z,9.50
2023-02-15T14:30:37.650Z,9.10
2023-02-15T14:33:26.784Z,9.20
2023-02-15T14:35:56.200Z,7.80
2023-02-15T14:38:39.607Z,8.30
2023-02-15T14:41:30.288Z,7.60
2023-02-15T14:44:13.799Z,8.20
2023-02-15T14:46:54.519Z,9.40
2023-02-15T14:49:35.026Z,8.80
2023-02-15T14:52:09.639Z,9.70
2023-02-15T14:54:37.845Z,10.30
2023-02-15T14:57:07.831Z,9.10
2023-02-15T15:00:04.700Z,9.60
2023-02-15T15:02:45.477Z,9.40
2023-02-15T15:05:47.418Z,9.90
2023-02-15T15:08:27.920Z,10.30
2023-02-15T15:10:57.469Z,9.30
2023-02-15T15:13:32.804Z,8.80
2023-02-15T15:16:31.338Z,9.90
2023-02-15T15:19:02.542Z,9.40
2023-02-15T15:21:49.500Z,9.60
2023-02-15T15:24:39.575Z,10.40
2023-02-15T15:27:39.076Z,9.60
2023-02-15T15:30:17.286Z,9.70
2023-02-15T15:32:57.912Z,9.00
2023-02-15T15:36:00.495Z,8.90
2023-02-15T15:39:05.546Z,11.70
2023-02-15T15:41:56.490Z,8.70
2023-02-15T15:44:49.671Z,10.90
2023-02-15T15:47:38.716Z,10.80
2023-02-15T15:50:18.937Z,9.50
2023-02-15T15:52:54.011Z,11.20
2023-02-15T15:55:25.734Z,10.20
2023-02-15T15:57:58.234Z,9.80
2023-02-15T16:00:35.927Z,9.20
2023-02-15T16:03:15.309Z,10.60
2023-02-15T16:05:43.636Z,11.60
2023-02-15T16:08:14.386Z,13.90
2023-02-15T16:10:42.952Z,11.50
2023-02-15T16:13:15.630Z,11.30
2023-02-15T16:15:53.998Z,10.20
2023-02-15T16:18:28.685Z,9.90
2023-02-15T16:21:00.877Z,11.20
2023-02-15T16:24:03.479Z,11.00
2023-02-15T16:26:49.983Z,9.60
2023-02-15T16:32:06.695Z,8.20
2023-02-15T16:34:35.050Z,10.50
2023-02-15T16:37:22.985Z,10.70
2023-02-15T16:39:52.278Z,10.80
2023-02-15T16:42:21.052Z,10.50
2023-02-15T16:44:59.476Z,10.70
2023-02-15T16:47:31.605Z,10.40
2023-02-15T16:50:03.615Z,12.00
2023-02-15T16:52:32.719Z,12.20
2023-02-15T16:55:04.774Z,12.10
2023-02-15T16:57:43.966Z,11.80
2023-02-15T17:00:24.226Z,13.10
2023-02-15T17:03:15.627Z,12.10
2023-02-15T17:05:49.930Z,12.10
2023-02-15T17:08:18.209Z,12.30
2023-02-15T17:11:04.655Z,11.80
2023-02-15T17:13:34.074Z,10.40
2023-02-15T17:16:03.728Z,11.80
2023-02-15T17:18:45.784Z,10.90
2023-02-15T17:21:26.345Z,12.20
2023-02-15T17:24:01.344Z,10.30
2023-02-15T17:26:39.332Z,9.70
2023-02-15T17:29:22.533Z,10.60
2023-02-15T17:31:53.564Z,10.90
2023-02-15T17:34:45.637Z,9.80
2023-02-15T17:37:25.004Z,10.70
2023-02-15T17:39:55.594Z,11.50
2023-02-15T17:42:24.215Z,14.10
2023-02-15T17:44:52.869Z,13.80
2023-02-15T17:47:25.749Z,14.10
2023-02-15T17:49:56.764Z,13.10
2023-02-15T17:52:29.349Z,13.80
2023-02-15T17:55:19.313Z,11.90
2023-02-15T17:57:48.952Z,11.90
2023-02-15T18:00:37.494Z,14.40
2023-02-15T18:03:29.973Z,14.10
2023-02-15T18:06:17.764Z,13.70
2023-02-15T18:09:05.800Z,12.70
2023-02-15T18:11:36.146Z,13.60
2023-02-15T18:14:08.636Z,13.50
2023-02-15T18:16:43.930Z,12.40
2023-02-15T18:19:17.998Z,11.60
2023-02-15T18:21:52.881Z,13.30
2023-02-15T18:24:31.968Z,12.90
2023-02-15T18:27:10.516Z,12.00
2023-02-15T18:29:49.134Z,13.10
2023-02-15T18:32:38.690Z,14.00
2023-02-15T18:35:10.431Z,12.40
2023-02-15T18:37:38.789Z,15.80
2023-02-15T18:40:25.952Z,16.00
2023-02-15T18:42:57.905Z,14.90
2023-02-15T18:45:33.661Z,13.30
2023-02-15T18:48:06.244Z,12.70
2023-02-15T18:50:35.871Z,13.60
2023-02-15T18:53:07.533Z,12.10
2023-02-15T18:55:36.895Z,12.50
2023-02-15T18:58:05.375Z,12.90
2023-02-15T19:00:35.412Z,14.50
2023-02-15T19:03:04.625Z,14.30
2023-02-15T19:05:33.903Z,12.90
2023-02-15T19:08:03.608Z,12.40
2023-02-15T19:10:34.084Z,13.70
2023-02-15T19:13:03.812Z,13.10
2023-02-15T19:15:32.200Z,13.90
2023-02-15T19:18:01.562Z,13.00
2023-02-15T19:20:40.056Z,13.10
2023-02-15T19:23:15.868Z,11.40
2023-02-15T19:25:44.168Z,12.20
2023-02-15T19:28:20.089Z,12.10
2023-02-15T19:30:48.544Z,13.50
2023-02-15T19:33:20.553Z,14.80
2023-02-15T19:35:54.262Z,14.60
2023-02-15T19:38:26.962Z,14.40
2023-02-15T19:41:01.175Z,14.70
2023-02-15T19:43:30.363Z,15.70
2023-02-15T19:45:58.701Z,14.50
2023-02-15T19:48:27.140Z,14.20
2023-02-15T19:50:58.618Z,15.00
2023-02-15T19:53:29.280Z,13.20
2023-02-15T19:55:57.606Z,21.20
2023-02-15T19:58:27.585Z,24.10
2023-02-15T20:00:56.757Z,21.10
2023-02-15T20:03:25.083Z,19.10
2023-02-15T20:05:53.396Z,17.30
2023-02-15T20:08:23.531Z,15.10
2023-02-15T20:10:52.537Z,16.00
2023-02-15T20:13:21.160Z,14.40
2023-02-15T20:15:50.928Z,14.20
2023-02-15T20:18:22.085Z,15.00
2023-02-15T20:20:55.187Z,13.60
2023-02-15T20:23:32.149Z,15.30
2023-02-15T20:26:05.711Z,14.50
2023-02-15T20:28:33.962Z,14.30
2023-02-15T20:31:02.809Z,15.80
2023-02-15T20:33:31.684Z,15.50
2023-02-15T20:36:00.059Z,16.50
2023-02-15T20:38:31.226Z,17.00
2023-02-15T20:41:20.188Z,16.60
2023-02-15T20:43:48.780Z,16.40
2023-02-15T20:46:16.993Z,16.50
2023-02-15T20:48:46.125Z,14.90
2023-02-15T20:51:19.399Z,17.60
2023-02-15T20:53:49.707Z,17.10
2023-02-15T20:56:23.400Z,19.30
2023-02-15T20:58:53.002Z,18.00
2023-02-15T21:01:21.674Z,19.30
2023-02-15T21:03:50.124Z,19.40
2023-02-15T21:06:19.400Z,18.50
2023-02-15T21:08:47.671Z,19.20
2023-02-15T21:11:21.459Z,17.90
2023-02-15T21:13:52.182Z,17.50
2023-02-15T21:16:20.414Z,18.60
2023-02-15T21:18:48.883Z,20.00
2023-02-15T21:21:23.729Z,17.90
2023-02-15T21:23:53.342Z,17.80
2023-02-15T21:26:26.209Z,18.60
2023-02-15T21:28:55.285Z,19.50
2023-02-15T21:31:25.928Z,17.20
2023-02-15T21:33:54.266Z,20.20
2023-02-15T21:36:24.430Z,20.60
2023-02-15T21:38:56.238Z,22.30
2023-02-15T21:41:45.216Z,24.60
2023-02-15T21:44:35.775Z,23.50
2023-02-15T21:47:23.224Z,26.90
2023-02-15T21:49:51.485Z,27.50
2023-02-15T21:52:23.773Z,25.50
2023-02-15T21:54:52.475Z,24.60
2023-02-15T21:57:22.408Z,22.20
2023-02-15T21:59:50.949Z,21.40
2023-02-15T22:02:29.522Z,22.00
2023-02-15T22:04:59.444Z,19.40
2023-02-15T22:07:27.659Z,19.80
2023-02-15T22:09:55.882Z,18.90
2023-02-15T22:12:24.206Z,19.00
2023-02-15T22:14:56.712Z,19.00
2023-02-15T22:17:29.205Z,17.50
2023-02-15T22:19:58.149Z,19.00
2023-02-15T22:22:27.207Z,16.30
2023-02-15T22:25:04.852Z,15.20
2023-02-15T22:27:39.804Z,15.60
2023-02-15T22:30:26.375Z,14.20
2023-02-15T22:32:56.977Z,15.60
2023-02-15T22:35:26.860Z,11.00
2023-02-15T22:37:56.335Z,11.90
2023-02-15T22:40:29.364Z,13.50
2023-02-15T22:43:00.208Z,14.30
2023-02-15T22:45:28.627Z,13.60
2023-02-15T22:48:00.560Z,14.00
2023-02-15T22:50:32.308Z,14.20
2023-02-15T22:53:02.424Z,12.90
2023-02-15T22:55:36.582Z,13.90
2023-02-15T22:58:06.222Z,12.10
2023-02-15T23:00:39.647Z,12.60
2023-02-15T23:03:20.619Z,13.60
2023-02-15T23:05:49.729Z,14.20
2023-02-15T23:08:18.195Z,13.10
2023-02-15T23:10:58.094Z,13.80
2023-02-15T23:13:32.853Z,14.30
2023-02-15T23:16:03.980Z,13.80
2023-02-15T23:18:33.594Z,14.80
2023-02-15T23:21:16.467Z,13.10
2023-02-15T23:23:46.974Z,15.10
2023-02-15T23:26:18.256Z,14.30
2023-02-15T23:28:47.399Z,14.60
2023-02-15T23:31:23.394Z,14.80
2023-02-15T23:33:53.050Z,13.80
2023-02-15T23:36:24.678Z,14.10
2023-02-15T23:38:54.612Z,15.00
2023-02-15T23:41:26.937Z,15.70
2023-02-15T23:44:03.605Z,14.50
2023-02-15T23:46:45.053Z,14.20
2023-02-15T23:49:17.267Z,14.50
2023-02-15T23:51:51.531Z,13.60
2023-02-15T23:54:22.307Z,14.20
2023-02-15T23:56:57.676Z,13.70
2023-02-15T23:59:28.602Z,11.30
